sensor_id;sensor_type;location;lat;lon;timestamp;temperature;humidity
10891;DHT22;5498;50.928;11.598;2023-03-04T00:00:44;2.70;89.70
10891;DHT22;5498;50.928;11.598;2023-03-04T00:03:47;2.70;89.80
10891;DHT22;5498;50.928;11.598;2023-03-04T00:06:50;2.70;90.00
10891;DHT22;5498;50.928;11.598;2023-03-04T00:09:52;2.70;90.20
10891;DHT22;5498;50.928;11.598;2023-03-04T00:12:54;2.70;90.20
10891;DHT22;5498;50.928;11.598;2023-03-04T00:15:56;2.60;90.40
10891;DHT22;5498;50.928;11.598;2023-03-04T00:18:58;2.60;90.50
10891;DHT22;5498;50.928;11.598;2023-03-04T00:22:01;2.70;90.60
10891;DHT22;5498;50.928;11.598;2023-03-04T00:25:04;2.70;90.60
10891;DHT22;5498;50.928;11.598;2023-03-04T00:28:06;2.80;90.80
10891;DHT22;5498;50.928;11.598;2023-03-04T00:31:08;2.80;90.10
10891;DHT22;5498;50.928;11.598;2023-03-04T00:34:10;2.80;90.30
10891;DHT22;5498;50.928;11.598;2023-03-04T00:37:13;2.80;90.20
10891;DHT22;5498;50.928;11.598;2023-03-04T00:40:16;2.80;90.30
10891;DHT22;5498;50.928;11.598;2023-03-04T00:43:18;2.80;90.40
10891;DHT22;5498;50.928;11.598;2023-03-04T00:46:19;2.80;90.20
10891;DHT22;5498;50.928;11.598;2023-03-04T00:49:21;2.80;90.10
10891;DHT22;5498;50.928;11.598;2023-03-04T00:52:25;2.90;90.10
10891;DHT22;5498;50.928;11.598;2023-03-04T00:55:26;2.90;90.00
10891;DHT22;5498;50.928;11.598;2023-03-04T00:58:28;2.90;90.00
10891;DHT22;5498;50.928;11.598;2023-03-04T01:01:30;2.90;90.00
10891;DHT22;5498;50.928;11.598;2023-03-04T01:04:32;2.80;90.00
10891;DHT22;5498;50.928;11.598;2023-03-04T01:07:35;2.90;90.00
10891;DHT22;5498;50.928;11.598;2023-03-04T01:10:37;2.90;90.00
10891;DHT22;5498;50.928;11.598;2023-03-04T01:13:39;2.80;90.00
10891;DHT22;5498;50.928;11.598;2023-03-04T01:16:41;2.80;90.20
10891;DHT22;5498;50.928;11.598;2023-03-04T01:19:43;2.90;90.00
10891;DHT22;5498;50.928;11.598;2023-03-04T01:22:46;2.90;90.00
10891;DHT22;5498;50.928;11.598;2023-03-04T01:25:48;2.90;90.10
10891;DHT22;5498;50.928;11.598;2023-03-04T01:28:50;2.90;90.00
10891;DHT22;5498;50.928;11.598;2023-03-04T01:31:52;2.90;90.10
10891;DHT22;5498;50.928;11.598;2023-03-04T01:34:54;2.90;90.00
10891;DHT22;5498;50.928;11.598;2023-03-04T01:37:57;2.90;90.10
10891;DHT22;5498;50.928;11.598;2023-03-04T01:40:59;2.90;90.10
10891;DHT22;5498;50.928;11.598;2023-03-04T01:44:01;2.90;90.20
10891;DHT22;5498;50.928;11.598;2023-03-04T01:47:03;2.90;90.20
10891;DHT22;5498;50.928;11.598;2023-03-04T01:50:12;2.90;90.20
10891;DHT22;5498;50.928;11.598;2023-03-04T01:53:22;2.90;90.40
10891;DHT22;5498;50.928;11.598;2023-03-04T01:56:28;3.00;90.30
10891;DHT22;5498;50.928;11.598;2023-03-04T01:59:31;3.00;90.20
10891;DHT22;5498;50.928;11.598;2023-03-04T02:02:33;2.90;90.20
10891;DHT22;5498;50.928;11.598;2023-03-04T02:05:36;3.00;90.10
10891;DHT22;5498;50.928;11.598;2023-03-04T02:08:40;3.00;90.20
10891;DHT22;5498;50.928;11.598;2023-03-04T02:11:43;3.00;90.00
10891;DHT22;5498;50.928;11.598;2023-03-04T02:14:46;3.00;90.20
10891;DHT22;5498;50.928;11.598;2023-03-04T02:17:48;3.10;90.10
10891;DHT22;5498;50.928;11.598;2023-03-04T02:20:57;3.10;90.10
10891;DHT22;5498;50.928;11.598;2023-03-04T02:24:13;3.10;90.10
10891;DHT22;5498;50.928;11.598;2023-03-04T02:27:19;3.10;90.50
10891;DHT22;5498;50.928;11.598;2023-03-04T02:30:23;3.10;90.10
10891;DHT22;5498;50.928;11.598;2023-03-04T02:33:25;3.20;90.10
10891;DHT22;5498;50.928;11.598;2023-03-04T02:36:28;3.20;89.80
10891;DHT22;5498;50.928;11.598;2023-03-04T02:39:33;3.20;90.10
10891;DHT22;5498;50.928;11.598;2023-03-04T02:42:37;3.30;90.00
10891;DHT22;5498;50.928;11.598;2023-03-04T02:45:41;3.30;90.10
10891;DHT22;5498;50.928;11.598;2023-03-04T02:48:44;3.40;90.00
10891;DHT22;5498;50.928;11.598;2023-03-04T02:51:50;3.40;89.60
10891;DHT22;5498;50.928;11.598;2023-03-04T02:54:52;3.40;89.80
10891;DHT22;5498;50.928;11.598;2023-03-04T02:57:55;3.40;89.50
10891;DHT22;5498;50.928;11.598;2023-03-04T03:00:57;3.50;89.50
10891;DHT22;5498;50.928;11.598;2023-03-04T03:03:59;3.50;89.10
10891;DHT22;5498;50.928;11.598;2023-03-04T03:07:01;3.50;88.80
10891;DHT22;5498;50.928;11.598;2023-03-04T03:10:04;3.50;89.20
10891;DHT22;5498;50.928;11.598;2023-03-04T03:13:07;3.50;89.30
10891;DHT22;5498;50.928;11.598;2023-03-04T03:16:09;3.50;88.80
10891;DHT22;5498;50.928;11.598;2023-03-04T03:19:10;3.50;88.80
10891;DHT22;5498;50.928;11.598;2023-03-04T03:22:12;3.50;88.80
10891;DHT22;5498;50.928;11.598;2023-03-04T03:25:15;3.50;88.70
10891;DHT22;5498;50.928;11.598;2023-03-04T03:28:18;3.80;89.00
10891;DHT22;5498;50.928;11.598;2023-03-04T03:31:20;3.60;88.40
10891;DHT22;5498;50.928;11.598;2023-03-04T03:34:22;3.60;88.40
10891;DHT22;5498;50.928;11.598;2023-03-04T03:37:24;3.60;88.30
10891;DHT22;5498;50.928;11.598;2023-03-04T03:40:26;3.60;88.30
10891;DHT22;5498;50.928;11.598;2023-03-04T03:43:29;3.60;88.20
10891;DHT22;5498;50.928;11.598;2023-03-04T03:46:31;3.60;88.20
10891;DHT22;5498;50.928;11.598;2023-03-04T03:49:34;3.70;88.00
10891;DHT22;5498;50.928;11.598;2023-03-04T03:52:36;3.60;88.00
10891;DHT22;5498;50.928;11.598;2023-03-04T03:55:38;3.60;88.00
10891;DHT22;5498;50.928;11.598;2023-03-04T03:58:41;3.60;88.00
10891;DHT22;5498;50.928;11.598;2023-03-04T04:01:43;3.60;88.20
10891;DHT22;5498;50.928;11.598;2023-03-04T04:04:45;3.60;88.10
10891;DHT22;5498;50.928;11.598;2023-03-04T04:07:46;3.60;87.80
10891;DHT22;5498;50.928;11.598;2023-03-04T04:10:48;3.60;88.00
10891;DHT22;5498;50.928;11.598;2023-03-04T04:13:52;3.60;88.10
10891;DHT22;5498;50.928;11.598;2023-03-04T04:16:53;3.60;88.20
10891;DHT22;5498;50.928;11.598;2023-03-04T04:19:55;3.60;88.30
10891;DHT22;5498;50.928;11.598;2023-03-04T04:22:57;3.60;88.20
10891;DHT22;5498;50.928;11.598;2023-03-04T04:25:59;3.60;88.30
10891;DHT22;5498;50.928;11.598;2023-03-04T04:29:02;3.70;88.00
10891;DHT22;5498;50.928;11.598;2023-03-04T04:32:05;3.70;87.80
10891;DHT22;5498;50.928;11.598;2023-03-04T04:35:07;3.70;88.00
10891;DHT22;5498;50.928;11.598;2023-03-04T04:38:09;4.00;88.10
10891;DHT22;5498;50.928;11.598;2023-03-04T04:41:18;3.70;87.80
10891;DHT22;5498;50.928;11.598;2023-03-04T04:44:22;3.70;88.10
10891;DHT22;5498;50.928;11.598;2023-03-04T04:47:24;3.70;87.50
10891;DHT22;5498;50.928;11.598;2023-03-04T04:50:27;3.70;87.60
10891;DHT22;5498;50.928;11.598;2023-03-04T04:53:28;3.80;87.40
10891;DHT22;5498;50.928;11.598;2023-03-04T04:56:31;3.80;87.20
10891;DHT22;5498;50.928;11.598;2023-03-04T04:59:34;3.80;87.60
10891;DHT22;5498;50.928;11.598;2023-03-04T05:02:36;3.80;87.30
10891;DHT22;5498;50.928;11.598;2023-03-04T05:05:38;3.80;87.60
10891;DHT22;5498;50.928;11.598;2023-03-04T05:08:40;3.70;87.20
10891;DHT22;5498;50.928;11.598;2023-03-04T05:11:41;3.70;87.30
10891;DHT22;5498;50.928;11.598;2023-03-04T05:14:45;3.80;87.30
10891;DHT22;5498;50.928;11.598;2023-03-04T05:17:46;3.80;87.10
10891;DHT22;5498;50.928;11.598;2023-03-04T05:20:49;3.80;87.10
10891;DHT22;5498;50.928;11.598;2023-03-04T05:23:52;3.80;87.30
10891;DHT22;5498;50.928;11.598;2023-03-04T05:26:54;3.80;86.90
10891;DHT22;5498;50.928;11.598;2023-03-04T05:29:57;3.80;86.90
10891;DHT22;5498;50.928;11.598;2023-03-04T05:33:00;3.80;86.80
10891;DHT22;5498;50.928;11.598;2023-03-04T05:36:02;3.80;86.80
10891;DHT22;5498;50.928;11.598;2023-03-04T05:39:05;3.80;86.80
10891;DHT22;5498;50.928;11.598;2023-03-04T05:42:06;3.80;86.70
10891;DHT22;5498;50.928;11.598;2023-03-04T05:45:10;3.80;86.90
10891;DHT22;5498;50.928;11.598;2023-03-04T05:48:12;3.80;87.10
10891;DHT22;5498;50.928;11.598;2023-03-04T05:51:14;3.80;86.90
10891;DHT22;5498;50.928;11.598;2023-03-04T05:54:16;3.90;86.60
10891;DHT22;5498;50.928;11.598;2023-03-04T05:57:18;3.90;86.70
10891;DHT22;5498;50.928;11.598;2023-03-04T06:00:21;3.80;86.70
10891;DHT22;5498;50.928;11.598;2023-03-04T06:03:23;3.90;86.90
10891;DHT22;5498;50.928;11.598;2023-03-04T06:06:24;3.90;86.70
10891;DHT22;5498;50.928;11.598;2023-03-04T06:09:26;3.90;86.80
10891;DHT22;5498;50.928;11.598;2023-03-04T06:12:28;3.90;86.30
10891;DHT22;5498;50.928;11.598;2023-03-04T06:15:31;3.90;86.80
10891;DHT22;5498;50.928;11.598;2023-03-04T06:18:34;3.90;86.90
10891;DHT22;5498;50.928;11.598;2023-03-04T06:21:35;3.90;86.50
10891;DHT22;5498;50.928;11.598;2023-03-04T06:24:37;3.90;86.60
10891;DHT22;5498;50.928;11.598;2023-03-04T06:27:39;4.00;88.00
10891;DHT22;5498;50.928;11.598;2023-03-04T06:30:42;4.10;88.60
10891;DHT22;5498;50.928;11.598;2023-03-04T06:33:44;4.10;87.50
10891;DHT22;5498;50.928;11.598;2023-03-04T06:36:46;4.10;87.70
10891;DHT22;5498;50.928;11.598;2023-03-04T06:39:48;4.10;87.80
10891;DHT22;5498;50.928;11.598;2023-03-04T06:42:50;4.10;87.20
10891;DHT22;5498;50.928;11.598;2023-03-04T06:45:53;4.10;87.40
10891;DHT22;5498;50.928;11.598;2023-03-04T06:48:55;4.20;88.10
10891;DHT22;5498;50.928;11.598;2023-03-04T06:51:57;4.30;87.80
10891;DHT22;5498;50.928;11.598;2023-03-04T06:54:59;4.30;87.10
10891;DHT22;5498;50.928;11.598;2023-03-04T06:58:01;4.30;87.10
10891;DHT22;5498;50.928;11.598;2023-03-04T07:01:15;4.30;86.70
10891;DHT22;5498;50.928;11.598;2023-03-04T07:04:17;4.30;87.20
10891;DHT22;5498;50.928;11.598;2023-03-04T07:07:19;4.30;86.70
10891;DHT22;5498;50.928;11.598;2023-03-04T07:10:21;4.30;87.10
10891;DHT22;5498;50.928;11.598;2023-03-04T07:13:23;4.40;86.80
10891;DHT22;5498;50.928;11.598;2023-03-04T07:16:26;4.40;86.70
10891;DHT22;5498;50.928;11.598;2023-03-04T07:19:28;4.40;87.10
10891;DHT22;5498;50.928;11.598;2023-03-04T07:22:30;4.40;86.10
10891;DHT22;5498;50.928;11.598;2023-03-04T07:25:31;4.40;86.10
10891;DHT22;5498;50.928;11.598;2023-03-04T07:28:34;4.40;85.90
10891;DHT22;5498;50.928;11.598;2023-03-04T07:31:37;4.40;86.30
10891;DHT22;5498;50.928;11.598;2023-03-04T07:34:39;4.40;85.80
10891;DHT22;5498;50.928;11.598;2023-03-04T07:37:41;4.50;86.10
10891;DHT22;5498;50.928;11.598;2023-03-04T07:40:43;4.50;86.10
10891;DHT22;5498;50.928;11.598;2023-03-04T07:43:45;4.50;85.50
10891;DHT22;5498;50.928;11.598;2023-03-04T07:46:48;4.50;85.70
10891;DHT22;5498;50.928;11.598;2023-03-04T07:49:50;4.30;85.50
10891;DHT22;5498;50.928;11.598;2023-03-04T07:52:52;4.40;85.80
10891;DHT22;5498;50.928;11.598;2023-03-04T07:55:54;4.40;85.80
10891;DHT22;5498;50.928;11.598;2023-03-04T07:58:57;4.50;85.90
10891;DHT22;5498;50.928;11.598;2023-03-04T08:02:00;4.50;86.50
10891;DHT22;5498;50.928;11.598;2023-03-04T08:05:03;4.60;86.10
10891;DHT22;5498;50.928;11.598;2023-03-04T08:08:05;4.60;86.20
10891;DHT22;5498;50.928;11.598;2023-03-04T08:11:08;4.70;85.80
10891;DHT22;5498;50.928;11.598;2023-03-04T08:14:12;4.70;86.30
10891;DHT22;5498;50.928;11.598;2023-03-04T08:17:16;4.70;85.80
10891;DHT22;5498;50.928;11.598;2023-03-04T08:20:18;4.70;86.10
10891;DHT22;5498;50.928;11.598;2023-03-04T08:23:19;4.80;85.70
10891;DHT22;5498;50.928;11.598;2023-03-04T08:26:23;4.80;85.70
10891;DHT22;5498;50.928;11.598;2023-03-04T08:29:26;4.80;86.00
10891;DHT22;5498;50.928;11.598;2023-03-04T08:32:30;4.90;86.10
10891;DHT22;5498;50.928;11.598;2023-03-04T08:35:32;4.90;85.50
10891;DHT22;5498;50.928;11.598;2023-03-04T08:38:34;4.90;85.60
10891;DHT22;5498;50.928;11.598;2023-03-04T08:41:37;5.00;85.70
10891;DHT22;5498;50.928;11.598;2023-03-04T08:44:38;5.00;85.50
10891;DHT22;5498;50.928;11.598;2023-03-04T08:47:42;5.00;85.60
10891;DHT22;5498;50.928;11.598;2023-03-04T08:50:44;5.00;85.60
10891;DHT22;5498;50.928;11.598;2023-03-04T08:53:46;5.10;86.10
10891;DHT22;5498;50.928;11.598;2023-03-04T08:56:48;5.10;85.90
10891;DHT22;5498;50.928;11.598;2023-03-04T08:59:50;5.20;85.80
10891;DHT22;5498;50.928;11.598;2023-03-04T09:02:53;5.20;86.00
10891;DHT22;5498;50.928;11.598;2023-03-04T09:05:55;5.20;86.00
10891;DHT22;5498;50.928;11.598;2023-03-04T09:08:57;5.30;85.90
10891;DHT22;5498;50.928;11.598;2023-03-04T09:11:58;5.30;86.00
10891;DHT22;5498;50.928;11.598;2023-03-04T09:15:00;5.40;85.70
10891;DHT22;5498;50.928;11.598;2023-03-04T09:18:05;5.40;85.70
10891;DHT22;5498;50.928;11.598;2023-03-04T09:21:06;5.50;85.80
10891;DHT22;5498;50.928;11.598;2023-03-04T09:24:09;5.60;85.60
10891;DHT22;5498;50.928;11.598;2023-03-04T09:27:10;5.60;85.50
10891;DHT22;5498;50.928;11.598;2023-03-04T09:30:13;5.70;85.30
10891;DHT22;5498;50.928;11.598;2023-03-04T09:33:17;5.70;85.30
10891;DHT22;5498;50.928;11.598;2023-03-04T09:36:19;5.80;85.50
10891;DHT22;5498;50.928;11.598;2023-03-04T09:39:21;5.80;85.30
10891;DHT22;5498;50.928;11.598;2023-03-04T09:42:26;5.90;84.80
10891;DHT22;5498;50.928;11.598;2023-03-04T09:45:35;5.90;84.50
10891;DHT22;5498;50.928;11.598;2023-03-04T09:48:46;5.90;84.40
10891;DHT22;5498;50.928;11.598;2023-03-04T09:51:59;6.00;84.40
10891;DHT22;5498;50.928;11.598;2023-03-04T09:55:11;6.00;84.20
10891;DHT22;5498;50.928;11.598;2023-03-04T09:58:33;6.00;84.00
10891;DHT22;5498;50.928;11.598;2023-03-04T10:01:45;6.10;84.10
10891;DHT22;5498;50.928;11.598;2023-03-04T10:04:52;6.10;83.70
10891;DHT22;5498;50.928;11.598;2023-03-04T10:07:57;6.10;83.60
10891;DHT22;5498;50.928;11.598;2023-03-04T10:11:04;6.20;83.50
10891;DHT22;5498;50.928;11.598;2023-03-04T10:14:20;6.20;83.40
10891;DHT22;5498;50.928;11.598;2023-03-04T10:17:34;6.20;83.50
10891;DHT22;5498;50.928;11.598;2023-03-04T10:20:47;6.30;83.50
10891;DHT22;5498;50.928;11.598;2023-03-04T10:23:52;6.30;83.20
10891;DHT22;5498;50.928;11.598;2023-03-04T10:26:59;6.30;82.90
10891;DHT22;5498;50.928;11.598;2023-03-04T10:30:05;6.30;83.20
10891;DHT22;5498;50.928;11.598;2023-03-04T10:33:15;6.40;83.20
10891;DHT22;5498;50.928;11.598;2023-03-04T10:36:35;6.40;83.90
10891;DHT22;5498;50.928;11.598;2023-03-04T10:39:43;6.40;83.20
10891;DHT22;5498;50.928;11.598;2023-03-04T10:42:47;6.50;83.20
10891;DHT22;5498;50.928;11.598;2023-03-04T10:45:54;6.50;83.10
10891;DHT22;5498;50.928;11.598;2023-03-04T10:48:57;6.50;83.20
10891;DHT22;5498;50.928;11.598;2023-03-04T10:52:14;6.50;83.20
10891;DHT22;5498;50.928;11.598;2023-03-04T10:55:22;6.60;83.30
10891;DHT22;5498;50.928;11.598;2023-03-04T10:58:25;6.60;83.30
10891;DHT22;5498;50.928;11.598;2023-03-04T11:01:27;6.70;83.10
10891;DHT22;5498;50.928;11.598;2023-03-04T11:04:33;6.70;82.60
10891;DHT22;5498;50.928;11.598;2023-03-04T11:07:39;6.70;83.10
10891;DHT22;5498;50.928;11.598;2023-03-04T11:10:42;6.70;83.00
10891;DHT22;5498;50.928;11.598;2023-03-04T11:13:50;6.80;82.80
10891;DHT22;5498;50.928;11.598;2023-03-04T11:16:55;6.80;83.10
10891;DHT22;5498;50.928;11.598;2023-03-04T11:20:08;6.80;83.20
10891;DHT22;5498;50.928;11.598;2023-03-04T11:23:16;6.80;83.30
10891;DHT22;5498;50.928;11.598;2023-03-04T11:26:23;6.80;83.30
10891;DHT22;5498;50.928;11.598;2023-03-04T11:29:30;6.80;83.40
10891;DHT22;5498;50.928;11.598;2023-03-04T11:32:39;6.90;83.50
10891;DHT22;5498;50.928;11.598;2023-03-04T11:35:52;6.90;83.10
10891;DHT22;5498;50.928;11.598;2023-03-04T11:39:01;7.00;83.10
10891;DHT22;5498;50.928;11.598;2023-03-04T11:42:12;7.00;83.10
10891;DHT22;5498;50.928;11.598;2023-03-04T11:45:23;7.00;83.10
10891;DHT22;5498;50.928;11.598;2023-03-04T11:48:36;7.10;83.10
10891;DHT22;5498;50.928;11.598;2023-03-04T11:51:52;7.10;83.10
10891;DHT22;5498;50.928;11.598;2023-03-04T11:55:17;7.10;82.80
10891;DHT22;5498;50.928;11.598;2023-03-04T11:58:47;7.10;83.00
10891;DHT22;5498;50.928;11.598;2023-03-04T12:02:12;7.10;83.00
10891;DHT22;5498;50.928;11.598;2023-03-04T12:05:22;7.10;83.20
10891;DHT22;5498;50.928;11.598;2023-03-04T12:12:05;7.20;83.10
10891;DHT22;5498;50.928;11.598;2023-03-04T12:15:23;7.20;83.10
10891;DHT22;5498;50.928;11.598;2023-03-04T12:18:36;7.20;82.80
10891;DHT22;5498;50.928;11.598;2023-03-04T12:21:54;7.20;83.00
10891;DHT22;5498;50.928;11.598;2023-03-04T12:25:17;7.20;83.10
10891;DHT22;5498;50.928;11.598;2023-03-04T12:28:46;7.20;83.00
10891;DHT22;5498;50.928;11.598;2023-03-04T12:31:56;7.20;83.10
10891;DHT22;5498;50.928;11.598;2023-03-04T12:35:27;7.20;82.70
10891;DHT22;5498;50.928;11.598;2023-03-04T12:38:44;7.20;82.90
10891;DHT22;5498;50.928;11.598;2023-03-04T12:42:04;7.30;82.90
10891;DHT22;5498;50.928;11.598;2023-03-04T12:45:20;7.20;82.80
10891;DHT22;5498;50.928;11.598;2023-03-04T12:48:29;7.20;82.80
10891;DHT22;5498;50.928;11.598;2023-03-04T12:51:35;7.20;83.00
10891;DHT22;5498;50.928;11.598;2023-03-04T12:54:45;7.20;83.20
10891;DHT22;5498;50.928;11.598;2023-03-04T12:57:50;7.20;83.30
10891;DHT22;5498;50.928;11.598;2023-03-04T13:01:01;7.30;83.40
10891;DHT22;5498;50.928;11.598;2023-03-04T13:04:10;7.30;83.60
10891;DHT22;5498;50.928;11.598;2023-03-04T13:07:23;7.30;83.50
10891;DHT22;5498;50.928;11.598;2023-03-04T13:10:36;7.40;83.70
10891;DHT22;5498;50.928;11.598;2023-03-04T13:13:40;7.30;83.40
10891;DHT22;5498;50.928;11.598;2023-03-04T13:16:45;7.30;83.30
10891;DHT22;5498;50.928;11.598;2023-03-04T13:19:51;7.30;83.30
10891;DHT22;5498;50.928;11.598;2023-03-04T13:22:56;7.30;83.40
10891;DHT22;5498;50.928;11.598;2023-03-04T13:26:23;7.30;83.50
10891;DHT22;5498;50.928;11.598;2023-03-04T13:29:32;7.40;83.40
10891;DHT22;5498;50.928;11.598;2023-03-04T13:32:37;7.40;83.30
10891;DHT22;5498;50.928;11.598;2023-03-04T13:35:47;7.40;83.20
10891;DHT22;5498;50.928;11.598;2023-03-04T13:38:57;7.50;83.20
10891;DHT22;5498;50.928;11.598;2023-03-04T13:42:02;7.50;83.10
10891;DHT22;5498;50.928;11.598;2023-03-04T13:45:29;7.50;83.00
10891;DHT22;5498;50.928;11.598;2023-03-04T13:48:33;7.50;82.90
10891;DHT22;5498;50.928;11.598;2023-03-04T13:51:38;7.50;83.00
10891;DHT22;5498;50.928;11.598;2023-03-04T13:54:44;7.50;83.30
10891;DHT22;5498;50.928;11.598;2023-03-04T13:57:48;7.50;83.00
10891;DHT22;5498;50.928;11.598;2023-03-04T14:00:52;7.60;84.20
10891;DHT22;5498;50.928;11.598;2023-03-04T14:03:56;7.60;84.10
10891;DHT22;5498;50.928;11.598;2023-03-04T14:07:00;7.50;84.70
10891;DHT22;5498;50.928;11.598;2023-03-04T14:10:06;7.60;85.00
10891;DHT22;5498;50.928;11.598;2023-03-04T14:13:18;7.50;85.10
10891;DHT22;5498;50.928;11.598;2023-03-04T14:16:25;7.50;85.00
10891;DHT22;5498;50.928;11.598;2023-03-04T14:19:31;7.50;85.00
10891;DHT22;5498;50.928;11.598;2023-03-04T14:22:38;7.50;85.00
10891;DHT22;5498;50.928;11.598;2023-03-04T14:25:40;7.50;84.90
10891;DHT22;5498;50.928;11.598;2023-03-04T14:28:44;7.50;84.90
10891;DHT22;5498;50.928;11.598;2023-03-04T14:31:47;7.50;85.30
10891;DHT22;5498;50.928;11.598;2023-03-04T14:34:55;7.50;85.10
10891;DHT22;5498;50.928;11.598;2023-03-04T14:38:01;7.50;85.00
10891;DHT22;5498;50.928;11.598;2023-03-04T14:41:08;7.50;84.80
10891;DHT22;5498;50.928;11.598;2023-03-04T14:44:15;7.90;85.20
10891;DHT22;5498;50.928;11.598;2023-03-04T14:47:23;7.50;85.20
10891;DHT22;5498;50.928;11.598;2023-03-04T14:50:32;7.40;85.20
10891;DHT22;5498;50.928;11.598;2023-03-04T14:53:34;7.40;85.50
10891;DHT22;5498;50.928;11.598;2023-03-04T14:56:42;7.40;85.40
10891;DHT22;5498;50.928;11.598;2023-03-04T14:59:44;7.40;85.50
10891;DHT22;5498;50.928;11.598;2023-03-04T15:02:49;7.40;85.40
10891;DHT22;5498;50.928;11.598;2023-03-04T15:05:52;7.40;85.40
10891;DHT22;5498;50.928;11.598;2023-03-04T15:08:57;7.40;85.00
10891;DHT22;5498;50.928;11.598;2023-03-04T15:12:02;7.40;84.80
10891;DHT22;5498;50.928;11.598;2023-03-04T15:15:29;7.40;85.50
10891;DHT22;5498;50.928;11.598;2023-03-04T15:18:36;7.40;84.70
10891;DHT22;5498;50.928;11.598;2023-03-04T15:21:40;7.40;84.70
10891;DHT22;5498;50.928;11.598;2023-03-04T15:24:42;7.40;85.00
10891;DHT22;5498;50.928;11.598;2023-03-04T15:27:44;7.40;85.00
10891;DHT22;5498;50.928;11.598;2023-03-04T15:30:47;7.40;85.50
10891;DHT22;5498;50.928;11.598;2023-03-04T15:33:49;7.40;85.70
10891;DHT22;5498;50.928;11.598;2023-03-04T15:36:52;7.30;86.20
10891;DHT22;5498;50.928;11.598;2023-03-04T15:39:56;7.30;86.50
10891;DHT22;5498;50.928;11.598;2023-03-04T15:43:02;7.30;86.80
10891;DHT22;5498;50.928;11.598;2023-03-04T15:46:04;7.30;87.20
10891;DHT22;5498;50.928;11.598;2023-03-04T15:49:06;7.20;87.60
10891;DHT22;5498;50.928;11.598;2023-03-04T15:52:14;7.20;88.40
10891;DHT22;5498;50.928;11.598;2023-03-04T15:55:19;7.10;89.50
10891;DHT22;5498;50.928;11.598;2023-03-04T15:58:21;7.10;90.00
10891;DHT22;5498;50.928;11.598;2023-03-04T16:01:24;7.10;89.60
10891;DHT22;5498;50.928;11.598;2023-03-04T16:04:26;7.00;89.70
10891;DHT22;5498;50.928;11.598;2023-03-04T16:07:30;7.00;89.40
10891;DHT22;5498;50.928;11.598;2023-03-04T16:10:32;7.00;89.50
10891;DHT22;5498;50.928;11.598;2023-03-04T16:13:34;7.00;89.90
10891;DHT22;5498;50.928;11.598;2023-03-04T16:16:36;7.00;89.60
10891;DHT22;5498;50.928;11.598;2023-03-04T16:19:37;7.00;89.50
10891;DHT22;5498;50.928;11.598;2023-03-04T16:22:41;7.00;89.50
10891;DHT22;5498;50.928;11.598;2023-03-04T16:25:45;7.00;89.70
10891;DHT22;5498;50.928;11.598;2023-03-04T16:28:48;7.00;89.80
10891;DHT22;5498;50.928;11.598;2023-03-04T16:31:53;7.00;89.70
10891;DHT22;5498;50.928;11.598;2023-03-04T16:34:55;7.00;89.60
10891;DHT22;5498;50.928;11.598;2023-03-04T16:37:58;7.00;89.20
10891;DHT22;5498;50.928;11.598;2023-03-04T16:41:00;7.00;89.40
10891;DHT22;5498;50.928;11.598;2023-03-04T16:44:02;7.40;90.00
10891;DHT22;5498;50.928;11.598;2023-03-04T16:47:05;6.90;90.10
10891;DHT22;5498;50.928;11.598;2023-03-04T16:50:08;6.90;90.00
10891;DHT22;5498;50.928;11.598;2023-03-04T16:53:23;6.90;90.10
10891;DHT22;5498;50.928;11.598;2023-03-04T16:56:28;6.80;90.10
10891;DHT22;5498;50.928;11.598;2023-03-04T16:59:29;6.80;90.00
10891;DHT22;5498;50.928;11.598;2023-03-04T17:02:31;6.80;90.00
10891;DHT22;5498;50.928;11.598;2023-03-04T17:05:33;6.80;90.00
10891;DHT22;5498;50.928;11.598;2023-03-04T17:08:36;6.80;90.00
10891;DHT22;5498;50.928;11.598;2023-03-04T17:11:39;6.70;89.90
10891;DHT22;5498;50.928;11.598;2023-03-04T17:14:40;6.70;89.80
10891;DHT22;5498;50.928;11.598;2023-03-04T17:17:43;6.70;89.40
10891;DHT22;5498;50.928;11.598;2023-03-04T17:20:45;6.70;89.60
10891;DHT22;5498;50.928;11.598;2023-03-04T17:23:49;6.60;89.30
10891;DHT22;5498;50.928;11.598;2023-03-04T17:26:51;6.60;89.80
10891;DHT22;5498;50.928;11.598;2023-03-04T17:29:53;6.60;90.00
10891;DHT22;5498;50.928;11.598;2023-03-04T17:32:55;6.50;90.10
10891;DHT22;5498;50.928;11.598;2023-03-04T17:35:57;6.50;90.00
10891;DHT22;5498;50.928;11.598;2023-03-04T17:39:01;6.50;90.10
10891;DHT22;5498;50.928;11.598;2023-03-04T17:42:04;6.50;90.30
10891;DHT22;5498;50.928;11.598;2023-03-04T17:45:08;6.50;90.40
10891;DHT22;5498;50.928;11.598;2023-03-04T17:48:11;6.40;90.40
10891;DHT22;5498;50.928;11.598;2023-03-04T17:51:14;6.40;90.30
10891;DHT22;5498;50.928;11.598;2023-03-04T17:54:18;6.40;90.40
10891;DHT22;5498;50.928;11.598;2023-03-04T17:57:20;6.40;90.50
10891;DHT22;5498;50.928;11.598;2023-03-04T18:00:22;6.40;90.30
10891;DHT22;5498;50.928;11.598;2023-03-04T18:03:24;6.50;90.50
10891;DHT22;5498;50.928;11.598;2023-03-04T18:06:26;6.40;90.30
10891;DHT22;5498;50.928;11.598;2023-03-04T18:09:29;6.50;90.30
10891;DHT22;5498;50.928;11.598;2023-03-04T18:12:31;6.40;90.40
10891;DHT22;5498;50.928;11.598;2023-03-04T18:15:33;6.40;90.40
10891;DHT22;5498;50.928;11.598;2023-03-04T18:18:35;6.40;90.40
10891;DHT22;5498;50.928;11.598;2023-03-04T18:21:37;6.40;90.40
10891;DHT22;5498;50.928;11.598;2023-03-04T18:24:40;6.40;90.40
10891;DHT22;5498;50.928;11.598;2023-03-04T18:27:43;6.40;90.50
10891;DHT22;5498;50.928;11.598;2023-03-04T18:30:44;6.40;90.50
10891;DHT22;5498;50.928;11.598;2023-03-04T18:33:46;6.40;90.50
10891;DHT22;5498;50.928;11.598;2023-03-04T18:36:48;6.40;90.40
10891;DHT22;5498;50.928;11.598;2023-03-04T18:39:52;6.40;90.40
10891;DHT22;5498;50.928;11.598;2023-03-04T18:42:54;6.40;90.40
10891;DHT22;5498;50.928;11.598;2023-03-04T18:46:01;6.40;90.50
10891;DHT22;5498;50.928;11.598;2023-03-04T18:49:05;6.40;90.50
10891;DHT22;5498;50.928;11.598;2023-03-04T18:52:09;6.40;90.50
10891;DHT22;5498;50.928;11.598;2023-03-04T18:55:13;6.30;90.30
10891;DHT22;5498;50.928;11.598;2023-03-04T18:58:15;6.30;90.30
10891;DHT22;5498;50.928;11.598;2023-03-04T19:01:19;6.30;90.20
10891;DHT22;5498;50.928;11.598;2023-03-04T19:04:26;6.30;90.50
10891;DHT22;5498;50.928;11.598;2023-03-04T19:07:28;6.30;90.10
10891;DHT22;5498;50.928;11.598;2023-03-04T19:10:31;6.20;89.70
10891;DHT22;5498;50.928;11.598;2023-03-04T19:13:33;6.20;89.50
10891;DHT22;5498;50.928;11.598;2023-03-04T19:16:35;6.20;89.60
10891;DHT22;5498;50.928;11.598;2023-03-04T19:19:38;6.20;89.80
10891;DHT22;5498;50.928;11.598;2023-03-04T19:22:40;6.10;89.80
10891;DHT22;5498;50.928;11.598;2023-03-04T19:25:45;6.20;89.90
10891;DHT22;5498;50.928;11.598;2023-03-04T19:28:47;6.20;89.60
10891;DHT22;5498;50.928;11.598;2023-03-04T19:31:49;6.20;89.50
10891;DHT22;5498;50.928;11.598;2023-03-04T19:34:51;6.20;89.30
10891;DHT22;5498;50.928;11.598;2023-03-04T19:37:52;6.20;89.00
10891;DHT22;5498;50.928;11.598;2023-03-04T19:40:56;6.10;88.60
10891;DHT22;5498;50.928;11.598;2023-03-04T19:43:58;6.10;88.60
10891;DHT22;5498;50.928;11.598;2023-03-04T19:47:00;6.10;88.10